Time;durP1;ratioP1;P1;durP2;ratioP2;P2;SDS_P1;SDS_P2;PMS_P1;PMS_P2;Temp;Humidity;BMP_temperature;BMP_pressure;BME280_temperature;BME280_humidity;BME280_pressure;Samples;Min_cycle;Max_cycle;Signal;HPM_P1;HPM_P2
2022/08/31 00:04:11;;;;;;;4.23;3.17;;;;;;;17.63;64.19;100442.27;1424878;91;21369;-78
2022/08/31 00:06:37;;;;;;;5.50;3.60;;;;;;;17.65;63.99;100446.92;1442090;90;21411;-79
2022/08/31 00:09:05;;;;;;;7.50;3.63;;;;;;;17.66;64.50;100443.73;1430920;91;22453;-76
2022/08/31 00:11:34;;;;;;;5.03;3.30;;;;;;;17.65;64.95;100443.42;1346063;92;21288;-78
2022/08/31 00:14:05;;;;;;;7.50;3.20;;;;;;;17.68;64.58;100444.37;1497645;90;21379;-79
2022/08/31 00:16:35;;;;;;;6.00;3.53;;;;;;;17.71;65.27;100442.65;1511597;90;21243;-79
2022/08/31 00:19:03;;;;;;;4.33;3.40;;;;;;;17.76;65.73;100449.08;1512848;90;21289;-79
2022/08/31 00:21:29;;;;;;;5.37;3.87;;;;;;;17.78;65.52;100448.41;1406922;90;22307;-79
2022/08/31 00:23:55;;;;;;;6.47;3.30;;;;;;;17.78;64.72;100443.55;1422530;90;21459;-79
2022/08/31 00:26:23;;;;;;;5.57;3.30;;;;;;;17.78;65.14;100440.37;1436116;90;21494;-78
2022/08/31 00:28:50;;;;;;;7.23;3.47;;;;;;;17.75;65.77;100439.89;1426501;90;21549;-79
2022/08/31 00:31:16;;;;;;;10.93;3.30;;;;;;;17.73;65.49;100443.29;1391682;90;21279;-79
2022/08/31 00:33:43;;;;;;;10.40;3.27;;;;;;;17.71;65.10;100441.31;1439384;90;21433;-78
2022/08/31 00:36:12;;;;;;;7.07;3.23;;;;;;;17.72;65.29;100444.29;1422234;90;21369;-79
2022/08/31 00:38:40;;;;;;;4.13;3.73;;;;;;;17.74;66.09;100450.28;1429676;91;21346;-78
2022/08/31 00:41:09;;;;;;;5.40;3.93;;;;;;;17.78;65.42;100443.55;1361076;91;21184;-78
2022/08/31 00:43:46;;;;;;;5.37;3.73;;;;;;;17.79;65.27;100439.86;1365191;92;22278;-78
2022/08/31 00:46:17;;;;;;;4.40;3.67;;;;;;;17.80;64.85;100436.16;1491972;89;21465;-79
2022/08/31 00:49:04;;;;;;;;;;;;;;;17.77;64.75;100436.52;1423839;91;21575;-79
2022/08/31 00:51:35;;;;;;;6.23;3.70;;;;;;;17.72;65.98;100433.09;1437120;89;20309;-80
2022/08/31 00:54:04;;;;;;;5.53;4.13;;;;;;;17.72;64.63;100433.58;1439868;90;21505;-79
2022/08/31 00:56:32;;;;;;;5.57;3.60;;;;;;;17.70;65.14;100430.30;1358634;92;21244;-78
2022/08/31 00:58:59;;;;;;;6.30;3.90;;;;;;;17.64;65.25;100433.75;1380953;91;21546;-78
2022/08/31 01:01:26;;;;;;;5.57;4.10;;;;;;;17.58;65.32;100434.83;1363880;91;21243;-79
2022/08/31 01:03:53;;;;;;;9.03;3.80;;;;;;;17.52;66.23;100436.09;1358147;89;21206;-80
2022/08/31 01:06:21;;;;;;;8.03;4.47;;;;;;;17.48;66.59;100435.66;1375390;90;21214;-79
2022/08/31 01:08:49;;;;;;;7.43;4.00;;;;;;;17.45;66.41;100433.37;1443528;90;21340;-79
2022/08/31 01:11:17;;;;;;;12.63;4.80;;;;;;;17.45;67.04;100425.86;1369890;90;21244;-79
2022/08/31 01:13:43;;;;;;;5.23;4.33;;;;;;;17.42;66.98;100428.41;1439632;90;21309;-77
2022/08/31 01:16:27;;;;;;;7.17;4.97;;;;;;;17.36;66.80;100427.33;1435703;90;21428;-79
2022/08/31 01:18:57;;;;;;;5.13;3.90;;;;;;;17.34;66.69;100429.87;1429661;91;21405;-78
2022/08/31 01:21:45;;;;;;;6.97;3.95;;;;;;;17.28;67.81;100426.11;1427183;91;21901;-79
2022/08/31 01:24:12;;;;;;;6.30;4.37;;;;;;;17.27;67.72;100441.03;1434562;89;22337;-79
2022/08/31 01:26:39;;;;;;;8.20;3.63;;;;;;;17.21;68.04;100431.10;1436261;91;21318;-79
2022/08/31 01:29:06;;;;;;;4.50;3.57;;;;;;;17.16;68.34;100434.33;1432015;90;21317;-79
2022/08/31 01:31:41;;;;;;;5.93;3.80;;;;;;;17.13;68.59;100436.87;1428186;90;22374;-78
2022/08/31 01:34:07;;;;;;;8.50;4.43;;;;;;;17.11;68.82;100439.42;1428037;91;21628;-79
2022/08/31 01:36:36;;;;;;;9.90;4.33;;;;;;;17.10;68.86;100441.27;1423973;91;22805;-80
2022/08/31 01:39:05;;;;;;;9.97;4.83;;;;;;;17.08;68.17;100440.63;1431680;91;21438;-79
2022/08/31 01:41:31;;;;;;;5.67;3.90;;;;;;;17.07;68.67;100442.98;1431240;91;21390;-80
2022/08/31 01:43:58;;;;;;;7.17;4.03;;;;;;;17.07;68.89;100442.17;1429578;90;21375;-80
2022/08/31 01:46:24;;;;;;;5.20;3.40;;;;;;;17.04;68.85;100438.02;1431251;90;21416;-80
2022/08/31 01:48:51;;;;;;;7.90;4.30;;;;;;;17.07;68.88;100436.30;1429830;90;22122;-78
2022/08/31 01:51:20;;;;;;;7.63;4.03;;;;;;;17.09;68.63;100430.27;1433812;91;21576;-80
2022/08/31 01:53:50;;;;;;;6.43;4.10;;;;;;;17.07;69.37;100433.63;1428731;91;22471;-80
2022/08/31 01:56:27;;;;;;;10.07;3.50;;;;;;;17.02;69.04;100436.03;1420770;91;21523;-80
2022/08/31 01:58:53;;;;;;;5.73;3.47;;;;;;;17.00;68.89;100435.39;1437713;91;21327;-79
2022/08/31 02:01:23;;;;;;;7.77;3.93;;;;;;;16.97;68.88;100441.11;1420842;91;21406;-79
2022/08/31 02:03:49;;;;;;;5.50;3.73;;;;;;;16.95;69.50;100443.17;1416358;91;21368;-80
2022/08/31 02:06:15;;;;;;;5.83;3.73;;;;;;;16.93;70.30;100442.52;1427081;91;22572;-80
2022/08/31 02:08:41;;;;;;;7.27;3.50;;;;;;;16.95;69.87;100443.17;1430039;91;21457;-80
2022/08/31 02:11:07;;;;;;;5.07;3.40;;;;;;;16.96;69.89;100443.48;1435064;91;22294;-80
2022/08/31 02:13:34;;;;;;;6.97;4.20;;;;;;;16.97;70.06;100443.79;1439153;91;21501;-79
2022/08/31 02:16:01;;;;;;;4.70;3.73;;;;;;;16.98;69.59;100444.13;1441362;91;21442;-80
2022/08/31 02:18:28;;;;;;;5.10;3.90;;;;;;;16.98;70.30;100442.80;1420396;91;21346;-80
2022/08/31 02:20:54;;;;;;;5.13;4.10;;;;;;;16.98;70.44;100446.80;1413768;92;21435;-80
2022/08/31 02:23:21;;;;;;;5.30;3.70;;;;;;;16.99;69.50;100444.44;1413285;92;21442;-79
2022/08/31 02:25:48;;;;;;;6.97;3.90;;;;;;;16.99;69.68;100448.45;1411695;92;21510;-80
2022/08/31 02:28:17;;;;;;;7.60;4.03;;;;;;;16.95;70.15;100441.84;1415608;92;21524;-78
2022/08/31 02:30:42;;;;;;;5.50;4.20;;;;;;;16.93;69.93;100437.69;1415235;92;21398;-80
2022/08/31 02:33:09;;;;;;;4.33;3.70;;;;;;;16.90;70.28;100441.56;1412003;92;22376;-79
2022/08/31 02:35:38;;;;;;;7.03;4.10;;;;;;;16.84;70.72;100434.30;1417320;92;21370;-79
2022/08/31 02:38:05;;;;;;;5.03;4.10;;;;;;;16.78;70.89;100435.06;1397291;94;21377;-80
2022/08/31 02:40:34;;;;;;;8.40;4.03;;;;;;;16.73;70.76;100434.76;1417145;92;21430;-80
2022/08/31 02:43:00;;;;;;;9.03;4.97;;;;;;;16.65;71.62;100431.16;1389925;94;21510;-79
2022/08/31 02:45:26;;;;;;;7.57;3.80;;;;;;;16.60;71.21;100428.25;1419542;92;21349;-81
2022/08/31 02:47:53;;;;;;;5.57;3.53;;;;;;;16.56;72.18;100432.28;1388049;94;21406;-80
2022/08/31 02:50:19;;;;;;;9.20;4.03;;;;;;;16.58;71.70;100429.45;1425157;92;21290;-80
2022/08/31 02:52:46;;;;;;;8.27;4.07;;;;;;;16.59;72.39;100428.42;1399844;94;21481;-80
2022/08/31 02:55:13;;;;;;;7.67;3.97;;;;;;;16.58;71.91;100430.27;1413305;92;21435;-79
2022/08/31 02:57:40;;;;;;;4.37;3.93;;;;;;;16.59;71.63;100433.77;1421456;92;22431;-77
2022/08/31 03:00:08;;;;;;;4.87;4.30;;;;;;;16.54;72.22;100435.64;1413500;91;21413;-81
2022/08/31 03:02:34;;;;;;;6.37;4.00;;;;;;;16.51;71.80;100434.68;1437019;91;21560;-77
2022/08/31 03:05:02;;;;;;;5.23;3.70;;;;;;;16.49;71.62;100433.23;1431855;91;21406;-77
2022/08/31 03:07:28;;;;;;;5.27;3.80;;;;;;;16.46;71.97;100429.09;1438576;91;21442;-80
2022/08/31 03:09:54;;;;;;;6.03;4.00;;;;;;;16.44;73.01;100435.12;1430934;91;21457;-78
2022/08/31 03:12:21;;;;;;;7.57;4.40;;;;;;;16.42;73.74;100433.13;1432599;91;21368;-79
2022/08/31 03:14:47;;;;;;;6.20;3.97;;;;;;;16.45;73.38;100432.76;1432662;91;21427;-78
2022/08/31 03:17:13;;;;;;;4.70;3.90;;;;;;;16.45;73.26;100431.42;1433052;91;21466;-79
2022/08/31 03:19:39;;;;;;;7.20;3.83;;;;;;;16.43;74.03;100434.30;1430118;91;21935;-79
2022/08/31 03:22:05;;;;;;;6.53;4.03;;;;;;;16.41;74.56;100431.48;1431482;91;21398;-79
2022/08/31 03:24:31;;;;;;;5.57;3.40;;;;;;;16.41;74.21;100435.49;1436784;91;21443;-78
2022/08/31 03:26:57;;;;;;;7.20;3.93;;;;;;;16.41;73.88;100432.82;1432525;91;21512;-78
2022/08/31 03:29:23;;;;;;;5.20;3.77;;;;;;;16.38;74.07;100434.53;1412734;92;22592;-78
2022/08/31 03:31:49;;;;;;;6.40;3.57;;;;;;;16.34;74.52;100439.91;1417492;92;21437;-79
2022/08/31 03:34:15;;;;;;;4.30;3.50;;;;;;;16.33;74.34;100443.59;1436513;91;21405;-79
2022/08/31 03:36:41;;;;;;;8.10;3.73;;;;;;;16.27;75.33;100447.01;1435680;91;21427;-81
2022/08/31 03:39:07;;;;;;;4.20;3.53;;;;;;;16.31;73.84;100448.28;1428576;91;21368;-80
2022/08/31 03:41:34;;;;;;;6.20;4.50;;;;;;;16.29;74.71;100444.99;1430232;91;21398;-81
2022/08/31 03:44:04;;;;;;;5.43;3.80;;;;;;;16.28;73.92;100449.48;1429311;91;21494;-80
2022/08/31 03:46:32;;;;;;;13.48;4.37;;;;;;;16.26;75.67;100446.19;1433151;91;21346;-81
2022/08/31 03:49:00;;;;;;;6.33;4.27;;;;;;;16.25;73.91;100447.18;1426753;91;21487;-79
2022/08/31 03:51:27;;;;;;;7.57;4.50;;;;;;;16.26;74.58;100455.53;1410038;92;21464;-77
2022/08/31 03:53:53;;;;;;;6.33;3.73;;;;;;;16.24;75.05;100457.55;1420981;92;21438;-78
2022/08/31 03:56:20;;;;;;;7.50;3.87;;;;;;;16.24;75.62;100457.55;1391063;94;22330;-79
2022/08/31 03:58:46;;;;;;;5.27;3.90;;;;;;;16.27;74.95;100457.17;1422048;92;21442;-80
2022/08/31 04:01:13;;;;;;;7.83;4.60;;;;;;;16.25;75.23;100452.52;1415319;92;22551;-79
2022/08/31 04:03:39;;;;;;;5.87;4.00;;;;;;;16.26;75.06;100450.70;1391025;94;21396;-78
2022/08/31 04:06:11;;;;;;;7.37;4.80;;;;;;;16.23;75.83;100448.72;1411598;92;21495;-79
2022/08/31 04:08:38;;;;;;;8.53;3.93;;;;;;;16.26;75.41;100450.19;1401076;92;21559;-78
2022/08/31 04:11:12;;;;;;;3.97;3.47;;;;;;;16.31;76.03;100458.97;1396768;92;21510;-79
2022/08/31 04:13:39;;;;;;;4.63;3.70;;;;;;;16.35;75.24;100458.42;1411624;92;21472;-80
2022/08/31 04:16:11;;;;;;;5.80;4.07;;;;;;;16.41;74.50;100451.00;1418793;92;21472;-80
2022/08/31 04:18:36;;;;;;;9.33;4.37;;;;;;;16.45;74.54;100451.45;1420784;92;21424;-80
2022/08/31 04:21:04;;;;;;;4.67;3.87;;;;;;;16.48;74.19;100451.09;1417182;92;21544;-78
2022/08/31 04:23:30;;;;;;;5.10;3.43;;;;;;;16.48;74.22;100449.75;1409084;92;21512;-79
2022/08/31 04:25:58;;;;;;;6.33;4.23;;;;;;;16.51;74.81;100450.71;1390811;92;21628;-80
2022/08/31 04:28:24;;;;;;;5.07;3.37;;;;;;;16.56;74.84;100455.00;1375035;95;21689;-79
2022/08/31 04:30:50;;;;;;;9.10;3.90;;;;;;;16.63;74.46;100461.75;1402502;93;21540;-79
2022/08/31 04:33:16;;;;;;;6.13;4.03;;;;;;;16.69;73.94;100457.02;1395225;94;21418;-78
2022/08/31 04:35:43;;;;;;;8.00;4.17;;;;;;;16.71;73.61;100457.64;1422508;92;21513;-78
2022/08/31 04:38:09;;;;;;;13.87;4.37;;;;;;;16.75;73.93;100464.80;1439968;90;21353;-77
2022/08/31 04:40:41;;;;;;;9.83;4.20;;;;;;;16.80;73.72;100466.41;1429854;91;21427;-80
2022/08/31 04:43:08;;;;;;;4.17;3.13;;;;;;;16.85;73.13;100470.70;1436214;91;22063;-80
2022/08/31 04:45:36;;;;;;;7.87;3.87;;;;;;;16.89;73.28;100462.12;1437780;91;21420;-79
2022/08/31 04:48:02;;;;;;;4.17;3.13;;;;;;;16.97;73.25;100462.50;1435282;91;21568;-78
2022/08/31 04:50:28;;;;;;;5.90;4.03;;;;;;;17.03;72.96;100464.94;1435804;91;21509;-79
2022/08/31 04:52:54;;;;;;;6.63;3.93;;;;;;;17.05;72.59;100461.57;1433268;91;22270;-80
2022/08/31 04:55:20;;;;;;;8.67;4.40;;;;;;;17.09;72.60;100454.81;1432470;91;21361;-81
2022/08/31 04:57:46;;;;;;;13.33;4.07;;;;;;;17.13;71.99;100462.28;1433980;91;21382;-78
2022/08/31 05:00:13;;;;;;;5.00;3.50;;;;;;;17.16;71.84;100454.39;1440951;90;21420;-80
2022/08/31 05:02:39;;;;;;;5.57;3.63;;;;;;;17.20;72.15;100461.52;1443105;91;22337;-78
2022/08/31 05:05:06;;;;;;;6.83;3.63;;;;;;;17.26;72.06;100474.13;1436172;90;21398;-79
2022/08/31 05:07:32;;;;;;;4.60;3.67;;;;;;;17.35;71.67;100473.01;1436982;89;21640;-77
2022/08/31 05:09:58;;;;;;;5.50;3.77;;;;;;;17.44;71.36;100473.20;1433849;91;21629;-79
2022/08/31 05:12:25;;;;;;;6.67;4.00;;;;;;;17.56;70.85;100478.34;1435265;90;21405;-79
2022/08/31 05:14:51;;;;;;;5.77;4.17;;;;;;;17.63;70.71;100477.57;1429394;91;22786;-80
2022/08/31 05:17:17;;;;;;;7.23;3.77;;;;;;;17.70;70.38;100479.81;1437098;91;21419;-79
2022/08/31 05:19:44;;;;;;;5.13;4.00;;;;;;;17.72;70.16;100479.08;1433269;91;21791;-80
2022/08/31 05:22:10;;;;;;;5.03;3.33;;;;;;;17.81;70.07;100477.98;1433038;91;21527;-79
2022/08/31 05:24:37;;;;;;;7.37;4.33;;;;;;;17.89;70.12;100483.17;1436911;90;21465;-80
2022/08/31 05:27:04;;;;;;;7.43;3.53;;;;;;;17.96;69.44;100480.05;1434922;91;21420;-81
2022/08/31 05:29:30;;;;;;;5.90;3.70;;;;;;;18.05;68.79;100480.73;1439961;91;21561;-77
2022/08/31 05:31:56;;;;;;;7.97;3.90;;;;;;;18.07;68.48;100475.16;1441102;91;21481;-78
2022/08/31 05:34:23;;;;;;;4.17;3.10;;;;;;;18.14;68.41;100480.06;1437196;91;22329;-78
2022/08/31 05:36:55;;;;;;;4.70;3.57;;;;;;;18.26;68.34;100471.79;1432533;90;21383;-77
2022/08/31 05:39:22;;;;;;;9.60;4.27;;;;;;;18.37;68.04;100475.27;1516941;90;22241;-77
2022/08/31 05:41:49;;;;;;;7.80;3.70;;;;;;;18.48;67.45;100480.06;1369399;90;21264;-81
2022/08/31 05:44:16;;;;;;;6.93;3.80;;;;;;;18.59;67.18;100477.87;1363961;91;21266;-81
2022/08/31 05:46:43;;;;;;;4.43;3.80;;;;;;;18.65;66.67;100475.73;1363152;91;21228;-79
2022/08/31 05:49:10;;;;;;;8.53;3.07;;;;;;;18.78;66.78;100475.80;1369522;91;21317;-81
2022/08/31 05:51:36;;;;;;;5.70;3.63;;;;;;;18.87;66.25;100484.00;1426167;91;21398;-80
2022/08/31 05:54:03;;;;;;;12.17;3.70;;;;;;;19.01;66.46;100488.05;1431006;91;21455;-80
2022/08/31 05:56:29;;;;;;;21.60;4.37;;;;;;;19.12;65.67;100486.13;1430802;91;21413;-79
2022/08/31 05:58:56;;;;;;;6.43;4.37;;;;;;;19.22;65.28;100482.56;1440416;91;21420;-82
2022/08/31 06:01:30;;;;;;;7.33;4.00;;;;;;;19.30;65.17;100482.87;1410011;91;21301;-80
2022/08/31 06:03:57;;;;;;;9.17;3.53;;;;;;;19.38;64.63;100483.50;1438861;91;21583;-81
2022/08/31 06:06:24;;;;;;;7.63;4.83;;;;;;;19.51;64.57;100492.11;1363503;91;21361;-81
2022/08/31 06:08:50;;;;;;;7.10;3.67;;;;;;;19.60;63.77;100496.76;1433422;91;21340;-80
2022/08/31 06:11:19;;;;;;;7.58;3.58;;;;;;;19.68;63.44;100495.25;1350166;92;21377;-80
2022/08/31 06:13:49;;;;;;;7.60;4.12;;;;;;;19.81;63.33;100493.89;1361274;91;21265;-80
2022/08/31 06:42:24;;;;;;;5.53;3.50;;;;;;;20.82;59.17;100501.28;1456407;88;21511;-83
2022/08/31 06:44:51;;;;;;;7.45;4.25;;;;;;;20.94;58.49;100498.22;1470433;88;21577;-81
2022/08/31 06:47:18;;;;;;;6.87;4.33;;;;;;;21.05;58.23;100506.97;1477448;86;22374;-82
2022/08/31 06:49:45;;;;;;;7.25;3.55;;;;;;;21.19;57.84;100508.55;1475656;87;21464;-81
2022/08/31 06:52:11;;;;;;;10.00;4.35;;;;;;;21.25;56.15;100507.39;1492603;87;21566;-81
2022/08/31 06:54:37;;;;;;;3.80;2.92;;;;;;;21.38;56.98;100505.48;1476704;87;22394;-81
2022/08/31 06:57:04;;;;;;;7.92;3.33;;;;;;;21.43;55.94;100505.34;1477744;88;21507;-80
2022/08/31 06:59:30;;;;;;;4.30;3.65;;;;;;;21.44;55.77;100507.83;1475504;87;21951;-81
2022/08/31 07:01:59;;;;;;;7.85;3.47;;;;;;;21.55;56.38;100504.94;1474862;87;21360;-80
2022/08/31 07:04:26;;;;;;;4.15;3.33;;;;;;;21.62;56.11;100506.55;1490252;87;22347;-80
2022/08/31 07:06:52;;;;;;;6.78;3.40;;;;;;;21.77;56.16;100505.41;1476708;87;22445;-79
2022/08/31 07:09:18;;;;;;;3.02;2.80;;;;;;;21.93;55.46;100504.87;1474144;87;21449;-80
2022/08/31 07:11:48;;;;;;;7.22;3.12;;;;;;;22.06;55.11;100497.18;1488344;87;21315;-79
2022/08/31 07:14:20;;;;;;;11.83;3.22;;;;;;;22.21;54.47;100500.91;1457623;87;21448;-80
2022/08/31 07:16:48;;;;;;;10.50;3.75;;;;;;;22.28;54.23;100501.15;1485853;87;21455;-81
2022/08/31 07:19:15;;;;;;;3.72;3.08;;;;;;;22.24;53.43;100500.45;1414385;87;21234;-81
2022/08/31 07:21:47;;;;;;;8.13;3.67;;;;;;;22.36;53.07;100500.05;1397063;89;21502;-80
2022/08/31 07:24:17;;;;;;;4.03;3.55;;;;;;;22.50;53.51;100499.38;1508802;88;21482;-81
2022/08/31 07:26:47;;;;;;;8.50;3.75;;;;;;;22.65;53.39;100503.87;1474251;87;22386;-82
2022/08/31 07:29:17;;;;;;;3.90;2.90;;;;;;;22.74;53.53;100505.73;1491368;86;21428;-82
2022/08/31 07:31:45;;;;;;;3.90;3.50;;;;;;;22.77;52.10;100489.09;1466446;87;21816;-81
2022/08/31 07:34:16;;;;;;;6.37;3.42;;;;;;;22.96;51.10;100507.48;1494285;87;21383;-82
2022/08/31 07:42:20;;;;;;;6.28;3.72;;;;;;;23.10;50.99;100494.61;1488768;87;22380;-82
2022/08/31 07:44:50;;;;;;;3.58;2.95;;;;;;;23.24;51.01;100495.25;1494420;87;21294;-81
2022/08/31 07:47:19;;;;;;;5.95;3.60;;;;;;;23.25;48.73;100499.09;1479853;86;22256;-82
2022/08/31 07:49:49;;;;;;;4.55;3.40;;;;;;;23.30;49.39;100491.09;1453588;88;22291;-80
2022/08/31 07:52:19;;;;;;;7.30;3.33;;;;;;;23.35;49.50;100497.17;1471765;87;22360;-82
2022/08/31 07:54:44;;;;;;;5.72;3.50;;;;;;;23.46;50.34;100491.52;1473498;87;22372;-82
2022/08/31 07:57:12;;;;;;;4.72;3.12;;;;;;;23.57;50.17;100488.84;1494492;87;22211;-82
2022/08/31 07:59:39;;;;;;;4.70;2.92;;;;;;;23.61;49.59;100494.06;1477208;87;21323;-81
2022/08/31 08:02:08;;;;;;;7.60;2.85;;;;;;;23.68;48.83;100493.98;1482803;87;21499;-82
2022/08/31 08:04:38;;;;;;;4.45;3.67;;;;;;;23.72;47.48;100492.48;1482253;87;21352;-82
2022/08/31 08:07:04;;;;;;;3.62;3.12;;;;;;;23.85;48.18;100499.02;1486996;87;21382;-80
2022/08/31 08:09:32;;;;;;;3.52;3.12;;;;;;;23.98;48.37;100494.45;1496375;87;21441;-81
2022/08/31 08:12:05;;;;;;;10.85;4.03;;;;;;;24.09;47.38;100488.22;1482421;87;21405;-80
2022/08/31 08:14:28;;;;;;;4.35;3.17;;;;;;;24.14;47.59;100497.80;1476673;88;22359;-80
2022/08/31 08:16:54;;;;;;;5.12;3.25;;;;;;;24.21;47.06;100501.20;1487128;87;21301;-80
2022/08/31 08:19:21;;;;;;;6.40;3.50;;;;;;;24.20;46.33;100497.39;1474158;88;21398;-78
2022/08/31 08:21:47;;;;;;;3.85;3.42;;;;;;;24.33;47.10;100499.84;1498897;87;21374;-80
2022/08/31 08:24:15;;;;;;;4.53;3.65;;;;;;;24.36;45.70;100493.95;1498815;87;21389;-79
2022/08/31 08:26:46;;;;;;;6.40;3.83;;;;;;;24.44;46.20;100492.80;1484917;87;22387;-79
2022/08/31 08:29:13;;;;;;;4.62;3.50;;;;;;;24.54;46.14;100490.30;1483928;87;22389;-80
2022/08/31 08:31:39;;;;;;;3.58;2.80;;;;;;;24.50;45.43;100486.44;1476187;87;22257;-78
2022/08/31 08:34:06;;;;;;;3.35;3.05;;;;;;;24.67;46.25;100487.34;1474715;87;21618;-79
2022/08/31 08:36:35;;;;;;;8.65;4.05;;;;;;;24.73;45.57;100483.67;1484092;87;21434;-79
2022/08/31 08:39:05;;;;;;;4.28;2.75;;;;;;;24.68;45.68;100478.69;1487336;87;21354;-80
2022/08/31 08:41:35;;;;;;;10.38;2.83;;;;;;;24.64;45.25;100481.59;1473514;88;21376;-79
2022/08/31 08:44:05;;;;;;;4.53;3.22;;;;;;;24.73;45.04;100480.97;1480560;87;21397;-80
2022/08/31 08:46:51;;;;;;;;;;;;;;;24.85;44.78;100485.52;1482980;87;21504;-81
2022/08/31 08:49:45;;;;;;;4.87;2.60;;;;;;;25.02;43.56;100483.69;1469749;87;20370;-79
2022/08/31 08:52:29;;;;;;;2.67;2.45;;;;;;;25.19;43.11;100481.88;1485104;87;22284;-80
2022/08/31 08:55:06;;;;;;;3.22;2.92;;;;;;;25.25;42.51;100479.27;1481059;87;21500;-79
2022/08/31 08:57:37;;;;;;;4.22;2.83;;;;;;;25.42;42.64;100476.88;1477235;87;21501;-80
2022/08/31 09:00:09;;;;;;;6.28;2.92;;;;;;;25.60;42.24;100472.28;1486707;87;21492;-80
2022/08/31 09:02:44;;;;;;;11.68;2.55;;;;;;;25.74;41.38;100474.95;1485916;87;21434;-80
2022/08/31 09:05:20;;;;;;;4.47;2.33;;;;;;;25.83;41.89;100472.69;1493682;86;21474;-80
2022/08/31 09:08:10;;;;;;;4.05;2.90;;;;;;;26.02;41.52;100465.12;1451360;89;22371;-79
2022/08/31 09:11:00;;;;;;;6.97;3.17;;;;;;;25.99;39.37;100462.91;1406502;93;21545;-80
2022/08/31 09:14:04;;;;;;;4.37;2.50;;;;;;;26.08;40.45;100459.51;1445036;89;21503;-79
2022/08/31 09:16:41;;;;;;;5.80;2.45;;;;;;;26.13;39.23;100454.70;1444661;89;21537;-80
2022/08/31 09:19:14;;;;;;;4.78;2.55;;;;;;;26.13;39.68;100458.77;1453526;89;22462;-79
2022/08/31 09:21:51;;;;;;;3.77;2.67;;;;;;;26.20;40.64;100460.75;1446881;89;21382;-80
2022/08/31 09:24:22;;;;;;;16.07;2.60;;;;;;;26.29;40.49;100461.14;1416668;91;22289;-79
2022/08/31 09:27:16;;;;;;;3.67;2.80;;;;;;;26.15;38.87;100451.73;1404693;91;21416;-80
2022/08/31 09:29:31;;;;;;;3.00;2.00;;;;;;;26.13;39.37;100451.17;1419751;90;22473;-79
2022/08/31 09:32:08;;;;;;;4.33;2.60;;;;;;;26.24;39.44;100447.50;1429581;90;21441;-80
2022/08/31 09:34:40;;;;;;;4.53;2.65;;;;;;;26.37;39.90;100453.12;1421260;91;22345;-80
2022/08/31 09:37:20;;;;;;;3.45;2.22;;;;;;;26.48;39.97;100446.75;1443147;91;21453;-80
2022/08/31 09:39:49;;;;;;;7.75;2.52;;;;;;;26.54;39.06;100440.34;1452479;89;21316;-79
2022/08/31 09:42:32;;;;;;;6.25;2.80;;;;;;;26.58;35.71;100436.03;1463038;89;21440;-78
2022/08/31 09:45:11;;;;;;;7.85;2.37;;;;;;;26.81;37.90;100439.01;1444947;88;21447;-79
2022/08/31 09:47:51;;;;;;;10.90;3.02;;;;;;;27.05;37.96;100436.02;1451821;88;21417;-79
2022/08/31 09:50:35;;;;;;;3.30;2.10;;;;;;;27.09;35.44;100435.77;1456349;87;22135;-80
2022/08/31 09:56:18;;;;;;;6.67;2.72;;;;;;;27.17;34.55;100431.27;1458588;88;22376;-80
2022/08/31 09:58:53;;;;;;;;;;;;;;;27.11;35.23;100432.27;1472583;86;21327;-80
2022/08/31 10:01:44;;;;;;;3.65;1.95;;;;;;;27.26;34.97;100427.00;1499419;86;20339;-78
2022/08/31 10:04:18;;;;;;;2.72;1.92;;;;;;;27.13;34.62;100428.22;1475635;86;22203;-80
2022/08/31 10:07:10;;;;;;;2.80;2.50;;;;;;;27.14;34.65;100431.75;1454613;88;21353;-79
2022/08/31 10:09:59;;;;;;;3.83;2.00;;;;;;;27.23;36.06;100416.10;1450853;89;22541;-76
2022/08/31 10:12:59;;;;;;;6.12;2.60;;;;;;;27.31;34.79;100419.44;1459987;89;22432;-79
2022/08/31 10:15:29;;;;;;;;;;;;;;;27.39;34.80;100413.51;1453412;89;21452;-78
2022/08/31 10:18:02;;;;;;;;;;;;;;;27.33;35.25;100411.28;1452030;88;20916;-79
2022/08/31 10:20:37;;;;;;;4.78;2.40;;;;;;;27.57;35.35;100411.77;1446155;89;20396;-80
2022/08/31 10:23:15;;;;;;;6.37;2.87;;;;;;;27.77;35.26;100407.01;1455994;89;21510;-79
2022/08/31 10:25:51;;;;;;;8.00;1.77;;;;;;;27.88;34.31;100406.02;1451644;89;21325;-81
2022/08/31 10:28:20;;;;;;;2.65;2.10;;;;;;;27.76;33.27;100405.34;1453327;89;22391;-81
2022/08/31 10:31:22;;;;;;;6.03;2.40;;;;;;;27.75;35.01;100401.55;1449114;89;21473;-79
2022/08/31 10:36:58;;;;;;;4.90;1.98;;;;;;;27.78;33.70;100393.68;1443018;89;22308;-84
2022/08/31 10:39:52;;;;;;;3.27;2.15;;;;;;;27.93;33.18;100391.62;1464098;89;21347;-87
2022/08/31 10:42:33;;;;;;;3.33;2.05;;;;;;;27.93;33.54;100389.44;1471136;88;21317;-84
2022/08/31 10:45:06;;;;;;;3.40;2.45;;;;;;;27.71;32.76;100386.31;1458130;87;21512;-84
2022/08/31 10:47:40;;;;;;;8.88;2.30;;;;;;;27.50;33.23;100382.61;1436591;89;21591;-86
2022/08/31 10:50:03;;;;;;;3.27;2.17;;;;;;;27.27;33.34;100374.29;1459038;88;21495;-86
2022/08/31 10:52:53;;;;;;;5.37;1.65;;;;;;;27.24;33.72;100376.17;1445601;89;21409;-86
2022/08/31 10:55:32;;;;;;;1.52;1.42;;;;;;;27.31;34.00;100379.50;1478452;88;21280;-84
2022/08/31 10:58:04;;;;;;;5.20;2.45;;;;;;;27.53;32.59;100374.48;1491502;86;21479;-84
2022/08/31 11:00:41;;;;;;;3.77;2.27;;;;;;;27.68;33.55;100369.16;1501162;86;21446;-86
2022/08/31 11:03:30;;;;;;;3.42;2.08;;;;;;;27.77;32.75;100366.22;1500065;87;21540;-85
2022/08/31 11:06:34;;;;;;;4.15;1.92;;;;;;;27.83;33.86;100363.84;1501623;87;21433;-85
2022/08/31 11:09:20;;;;;;;2.92;2.10;;;;;;;27.81;33.01;100360.55;1484480;86;22336;-87
2022/08/31 11:12:02;;;;;;;4.10;2.33;;;;;;;27.85;32.80;100361.68;1473388;88;21522;-85
2022/08/31 11:14:52;;;;;;;5.28;2.35;;;;;;;27.70;32.84;100362.09;1477422;88;22410;-85
2022/08/31 11:18:14;;;;;;;3.45;1.80;;;;;;;27.60;33.56;100354.70;1471403;87;21441;-87
2022/08/31 11:20:50;;;;;;;6.53;2.58;;;;;;;27.83;33.18;100358.95;1498693;86;22240;-86
2022/08/31 11:23:38;;;;;;;3.98;2.58;;;;;;;27.76;32.69;100361.03;1497403;87;22328;-87
2022/08/31 11:26:34;;;;;;;2.62;1.92;;;;;;;27.97;32.36;100357.94;1386184;92;21730;-91
2022/08/31 11:29:30;;;;;;;2.45;1.90;;;;;;;28.06;32.80;100354.98;1449017;90;21442;-91
2022/08/31 11:32:20;;;;;;;3.17;1.90;;;;;;;28.03;32.73;100359.04;1432823;91;21427;-89
2022/08/31 11:34:52;;;;;;;2.15;1.95;;;;;;;28.15;32.63;100349.30;1483155;88;21426;-92
2022/08/31 11:37:50;;;;;;;5.35;2.40;;;;;;;28.17;32.93;100347.14;1460684;88;21266;-93
2022/08/31 11:40:41;;;;;;;3.08;2.15;;;;;;;28.20;32.34;100348.52;1453066;89;22362;-94
2022/08/31 11:43:14;;;;;;;9.05;2.45;;;;;;;28.15;32.49;100346.58;1423629;91;21361;-93
2022/08/31 11:45:42;;;;;;;6.65;1.90;;;;;;;28.19;33.14;100337.33;1468617;88;22221;-92
2022/08/31 11:48:43;;;;;;;5.42;2.35;;;;;;;28.17;32.56;100339.49;1451131;89;22662;-91
2022/08/31 11:51:10;;;;;;;2.47;1.75;;;;;;;28.15;32.75;100342.50;1452346;89;21345;-90
2022/08/31 11:53:42;;;;;;;2.40;2.02;;;;;;;28.39;32.66;100342.02;1477067;88;21316;-89
2022/08/31 11:56:08;;;;;;;2.22;2.02;;;;;;;28.27;32.35;100343.07;1468939;88;23490;-91
2022/08/31 11:58:38;;;;;;;4.05;2.30;;;;;;;28.38;32.54;100340.39;1456756;88;22370;-89
2022/08/31 12:01:13;;;;;;;3.77;1.82;;;;;;;28.41;31.74;100335.23;1468416;88;21455;-91
2022/08/31 12:03:51;;;;;;;8.88;2.08;;;;;;;28.27;32.22;100337.62;1467881;88;22380;-89
2022/08/31 12:06:32;;;;;;;3.40;1.95;;;;;;;28.44;31.78;100340.16;1454025;88;21400;-90
2022/08/31 12:09:35;;;;;;;4.85;1.72;;;;;;;28.59;31.49;100333.93;1458344;88;21395;-89
2022/08/31 12:12:16;;;;;;;4.35;2.17;;;;;;;28.84;31.73;100321.45;1455876;88;21466;-86
2022/08/31 12:14:48;;;;;;;9.65;2.85;;;;;;;28.69;30.65;100328.52;1449440;89;21551;-89
2022/08/31 12:17:50;;;;;;;1.80;1.55;;;;;;;28.85;30.73;100323.07;1447437;88;21466;-88
2022/08/31 12:23:53;;;;;;;4.35;1.90;;;;;;;28.56;30.63;100323.58;1454374;88;21484;-89
2022/08/31 12:26:47;;;;;;;4.80;2.00;;;;;;;28.81;30.37;100324.72;1469458;88;21459;-89
2022/08/31 12:29:25;;;;;;;6.87;1.67;;;;;;;28.91;30.85;100319.26;1455044;89;22493;-90
2022/08/31 12:32:14;;;;;;;4.80;1.65;;;;;;;28.86;30.00;100317.37;1454094;89;21512;-89